createdAt,value
2018-03-22T00:16:03.928Z,99122.34
2018-03-22T00:36:38.892Z,99097.55
2018-03-22T00:57:18.156Z,99084.00
2018-03-22T01:17:52.508Z,99068.05
2018-03-22T01:38:26.551Z,99057.83
2018-03-22T01:58:57.828Z,99018.08
2018-03-22T02:19:30.951Z,98991.68
2018-03-22T02:40:04.381Z,98949.59
2018-03-22T03:00:35.348Z,98938.97
2018-03-22T03:21:07.551Z,98919.36
2018-03-22T03:41:40.989Z,98885.55
2018-03-22T04:02:14.097Z,98865.13
2018-03-22T04:22:50.291Z,98836.09
2018-03-22T04:43:24.642Z,98801.07
2018-03-22T05:03:59.611Z,98774.18
2018-03-22T05:24:33.035Z,98740.47
2018-03-22T05:45:08.307Z,98726.31
2018-03-22T06:05:40.506Z,98710.75
2018-03-22T06:26:12.699Z,98671.05
2018-03-22T06:46:43.981Z,98676.05
2018-03-22T07:07:18.024Z,98632.88
2018-03-22T07:27:50.226Z,98610.51
2018-03-22T07:48:22.426Z,98568.89
2018-03-22T08:08:56.473Z,98513.36
2018-03-22T08:29:31.151Z,98563.73
2018-03-22T08:50:05.172Z,98566.02
2018-03-22T09:10:38.294Z,98559.25
2018-03-22T09:31:16.332Z,98531.39
2018-03-22T09:51:47.617Z,98491.50
2018-03-22T10:12:21.952Z,98455.77
2018-03-22T10:32:58.494Z,98410.48
2018-03-22T10:53:34.341Z,98367.91
2018-03-22T11:14:11.765Z,98327.64
2018-03-22T11:34:47.960Z,98313.01
2018-03-22T11:55:24.464Z,98317.85
2018-03-22T12:16:00.701Z,98303.55
2018-03-22T12:36:34.692Z,98275.25
2018-03-22T12:57:17.031Z,98233.14
2018-03-22T13:17:50.441Z,98210.72
2018-03-22T13:38:22.361Z,98208.59
2018-03-22T13:58:56.851Z,98166.92
2018-03-22T14:19:29.826Z,98135.03
2018-03-22T14:40:06.638Z,98135.16
2018-03-22T15:00:41.289Z,98102.75
2018-03-22T15:42:09.957Z,98111.34
2018-03-22T16:02:43.078Z,98102.89
2018-03-22T16:23:22.659Z,98091.38
2018-03-22T16:43:56.695Z,98096.12
2018-03-22T17:04:33.806Z,98078.83
2018-03-22T17:25:11.372Z,98087.14
2018-03-22T17:45:46.603Z,98097.46
2018-03-22T18:06:22.393Z,98082.95
2018-03-22T18:26:52.751Z,98090.08
2018-03-22T18:47:25.874Z,98090.66
2018-03-22T19:08:00.452Z,98084.55
2018-03-22T19:28:32.419Z,98067.80
2018-03-22T19:49:06.874Z,98061.75
2018-03-22T20:09:40.815Z,98044.13
2018-03-22T20:30:16.373Z,98043.97
2018-03-22T20:50:49.217Z,98037.13
2018-03-22T21:11:24.480Z,98038.65
2018-03-22T21:32:01.005Z,98036.80
2018-03-22T21:52:49.153Z,98026.32
2018-03-22T22:13:26.276Z,98011.10
2018-03-22T22:34:00.615Z,97994.82
2018-03-22T22:54:36.810Z,97975.41
2018-03-22T23:15:13.320Z,97956.66
2018-03-22T23:35:50.560Z,97946.57
2018-03-22T23:56:22.631Z,97927.34
